Time;durP1;ratioP1;P1;durP2;ratioP2;P2;SDS_P1;SDS_P2;PMS_P1;PMS_P2;Temp;Humidity;BMP_temperature;BMP_pressure;BME280_temperature;BME280_humidity;BME280_pressure;Samples;Min_cycle;Max_cycle;Signal;HPM_P1;HPM_P2
2021/04/04 00:01:41;;;;;;;14.82;4.43;;;;;;;8.64;48.30;101309.56;5095152;28;20048;-59
2021/04/04 00:04:08;;;;;;;13.80;3.58;;;;;;;8.55;49.30;101308.47;5095715;28;20056;-60
2021/04/04 00:06:35;;;;;;;12.60;3.88;;;;;;;8.60;49.26;101310.41;5095736;28;20067;-61
2021/04/04 00:09:03;;;;;;;17.08;3.80;;;;;;;8.60;48.62;101307.63;5094624;28;20048;-62
2021/04/04 00:11:31;;;;;;;13.50;4.07;;;;;;;8.61;49.23;101309.28;5095380;28;20059;-60
2021/04/04 00:13:58;;;;;;;12.98;3.13;;;;;;;8.63;49.00;101309.81;5094418;28;20075;-60
2021/04/04 00:16:25;;;;;;;13.30;3.67;;;;;;;8.61;49.19;101304.56;5093520;28;20048;-60
2021/04/04 00:18:52;;;;;;;15.20;3.88;;;;;;;8.61;48.83;101307.34;5095310;28;20048;-59
2021/04/04 00:21:19;;;;;;;14.57;4.35;;;;;;;8.60;48.45;101307.63;5094959;28;20056;-60
2021/04/04 00:23:46;;;;;;;14.90;4.68;;;;;;;8.55;48.33;101302.91;5094111;28;20048;-59
2021/04/04 00:26:13;;;;;;;15.65;4.25;;;;;;;8.53;48.59;101303.19;5095279;28;20067;-59
2021/04/04 00:28:40;;;;;;;14.43;3.65;;;;;;;8.49;48.84;101302.09;5094832;28;20052;-60
2021/04/04 00:31:07;;;;;;;17.02;4.38;;;;;;;8.52;48.05;101306.25;5094490;28;20155;-59
2021/04/04 00:33:35;;;;;;;11.98;4.00;;;;;;;8.51;49.11;101299.88;5095146;28;20048;-59
2021/04/04 00:36:03;;;;;;;14.65;3.95;;;;;;;8.48;48.79;101303.22;5093996;28;20134;-59
2021/04/04 00:38:30;;;;;;;13.63;3.97;;;;;;;8.46;49.39;101299.88;5094040;28;20047;-59
2021/04/04 00:40:57;;;;;;;13.77;4.00;;;;;;;8.46;48.88;101301.81;5094130;28;20060;-59
2021/04/04 00:43:24;;;;;;;17.75;5.22;;;;;;;8.43;48.96;101302.38;5094185;28;20052;-59
2021/04/04 00:45:55;;;;;;;15.20;4.32;;;;;;;8.43;48.88;101297.66;5093695;28;20063;-59
2021/04/04 00:48:22;;;;;;;13.07;3.95;;;;;;;8.45;48.87;101306.53;5094055;28;20048;-60
2021/04/04 00:50:48;;;;;;;12.77;4.00;;;;;;;8.44;49.05;101296.56;5094246;28;20495;-60
2021/04/04 00:53:18;;;;;;;18.13;4.97;;;;;;;8.43;50.36;101294.88;5094007;28;20043;-60
2021/04/04 00:55:45;;;;;;;12.73;4.45;;;;;;;8.47;49.49;101293.22;5093431;28;20058;-60
2021/04/04 00:58:12;;;;;;;13.80;4.38;;;;;;;8.51;49.06;101288.75;5073924;28;20056;-60
2021/04/04 01:00:39;;;;;;;17.70;4.90;;;;;;;8.51;49.48;101283.19;5074000;28;20055;-61
2021/04/04 01:03:08;;;;;;;15.90;4.72;;;;;;;8.51;49.81;101283.19;5073643;28;20053;-61
2021/04/04 01:05:39;;;;;;;18.17;4.70;;;;;;;8.42;49.30;101287.69;5074165;28;20060;-61
2021/04/04 01:08:08;;;;;;;15.07;4.47;;;;;;;8.41;50.33;101288.78;5073417;28;20064;-61
2021/04/04 01:10:39;;;;;;;16.33;5.22;;;;;;;8.45;49.46;101280.72;5088222;28;20052;-60
2021/04/04 01:13:15;;;;;;;19.33;4.60;;;;;;;8.46;50.02;101279.59;5093253;28;20059;-60
2021/04/04 01:15:49;;;;;;;16.42;4.28;;;;;;;8.47;50.52;101275.72;5093350;28;20056;-60
2021/04/04 01:18:28;;;;;;;22.58;5.20;;;;;;;8.49;50.17;101279.88;5093831;28;20053;-60
2021/04/04 01:20:57;;;;;;;19.48;4.68;;;;;;;8.50;50.13;101280.69;5093421;28;20055;-61
2021/04/04 01:23:53;;;;;;;18.93;5.23;;;;;;;8.53;49.37;101285.72;5093472;28;20059;-60
2021/04/04 01:26:32;;;;;;;17.45;4.70;;;;;;;8.51;49.52;101283.19;5093444;28;20485;-59
2021/04/04 01:29:02;;;;;;;25.83;5.63;;;;;;;8.45;49.63;101284.31;5093848;28;20044;-59
2021/04/04 01:31:29;;;;;;;18.05;5.72;;;;;;;8.44;49.99;101284.59;5093478;28;20389;-60
2021/04/04 01:33:58;;;;;;;23.45;5.95;;;;;;;8.45;50.10;101289.88;5093305;28;20503;-60
2021/04/04 01:36:27;;;;;;;19.85;5.10;;;;;;;8.47;49.58;101276.53;5093231;28;20059;-60
2021/04/04 01:38:55;;;;;;;16.37;4.43;;;;;;;8.49;49.54;101274.31;5093005;28;20044;-60
2021/04/04 01:41:26;;;;;;;18.90;4.65;;;;;;;8.51;49.37;101287.94;5093407;28;20062;-60
2021/04/04 01:44:00;;;;;;;11.88;4.53;;;;;;;8.51;49.96;101283.19;5093190;28;20503;-60
2021/04/04 01:46:29;;;;;;;16.40;4.10;;;;;;;8.50;49.76;101278.78;5093124;28;20063;-60
2021/04/04 01:48:59;;;;;;;17.25;4.47;;;;;;;8.51;48.71;101274.06;5093038;28;20056;-60
2021/04/04 01:51:28;;;;;;;16.25;4.25;;;;;;;8.51;48.94;101277.66;5091920;28;20416;-60
2021/04/04 01:53:57;;;;;;;18.63;5.40;;;;;;;8.52;50.13;101278.47;5092655;28;20048;-60
2021/04/04 01:56:25;;;;;;;14.48;4.78;;;;;;;8.53;49.83;101285.72;5092741;28;20059;-60
2021/04/04 01:58:54;;;;;;;13.30;5.40;;;;;;;8.52;49.73;101284.88;5092761;28;20048;-60
2021/04/04 02:01:22;;;;;;;15.55;4.10;;;;;;;8.54;49.75;101277.06;5092911;28;20048;-60
2021/04/04 02:03:52;;;;;;;12.55;4.55;;;;;;;8.53;50.13;101278.19;5092669;28;20048;-60
2021/04/04 02:06:20;;;;;;;15.25;4.50;;;;;;;8.54;49.49;101271.53;5093478;28;20048;-59
2021/04/04 02:08:47;;;;;;;18.55;4.55;;;;;;;8.58;49.27;101270.97;5092657;28;20044;-60
2021/04/04 02:11:19;;;;;;;19.92;4.90;;;;;;;8.57;48.93;101274.84;5092385;28;20051;-58
2021/04/04 02:13:48;;;;;;;16.02;5.03;;;;;;;8.58;48.87;101268.19;5092723;28;20063;-60
2021/04/04 02:16:17;;;;;;;19.65;4.45;;;;;;;8.58;48.95;101268.19;5092550;28;20485;-60
2021/04/04 02:18:45;;;;;;;14.68;5.28;;;;;;;8.58;49.03;101263.47;5092481;28;20051;-59
2021/04/04 02:21:14;;;;;;;16.60;4.78;;;;;;;8.59;49.27;101254.03;5092655;28;20492;-59
2021/04/04 02:23:43;;;;;;;18.02;5.07;;;;;;;8.60;49.29;101254.88;5092059;28;20055;-60
2021/04/04 02:26:10;;;;;;;18.40;5.45;;;;;;;8.59;48.85;101254.03;5092435;28;20063;-60
2021/04/04 02:28:37;;;;;;;15.50;5.20;;;;;;;8.58;49.30;101251.53;5092483;28;20055;-60
2021/04/04 02:31:05;;;;;;;18.50;5.22;;;;;;;8.59;48.62;101245.72;5093119;28;20523;-58
2021/04/04 02:33:36;;;;;;;14.20;3.83;;;;;;;8.57;48.98;101247.94;5093095;28;20400;-60
2021/04/04 02:36:12;;;;;;;17.35;4.93;;;;;;;8.52;48.70;101247.94;5092542;28;20056;-60
2021/04/04 02:38:44;;;;;;;15.98;4.10;;;;;;;8.49;49.10;101235.44;5092234;28;20051;-60
2021/04/04 02:41:12;;;;;;;17.02;4.25;;;;;;;8.44;48.46;101238.25;5092282;28;20052;-60
2021/04/04 02:43:44;;;;;;;16.70;5.05;;;;;;;8.43;48.25;101235.75;5092840;28;20052;-60
2021/04/04 02:46:14;;;;;;;15.80;4.80;;;;;;;8.40;47.71;101244.59;5092846;28;20059;-60
2021/04/04 02:48:44;;;;;;;14.57;3.95;;;;;;;8.36;48.32;101244.34;5092135;28;20056;-60
2021/04/04 02:51:14;;;;;;;9.32;4.00;;;;;;;8.35;48.43;101253.78;5092346;28;20059;-60
2021/04/04 02:53:46;;;;;;;13.52;4.47;;;;;;;8.34;47.94;101250.16;5092629;28;20110;-60
2021/04/04 02:56:17;;;;;;;22.13;5.18;;;;;;;8.30;48.34;101240.72;5092394;28;20052;-59
2021/04/04 02:58:46;;;;;;;14.00;4.18;;;;;;;8.30;48.95;101239.91;5092283;28;20051;-60
2021/04/04 03:01:15;;;;;;;19.20;4.75;;;;;;;8.27;49.59;101248.78;5092145;28;20059;-60
2021/04/04 03:03:44;;;;;;;20.93;5.07;;;;;;;8.29;48.74;101246.56;5095679;28;20063;-60
2021/04/04 03:06:12;;;;;;;13.75;4.10;;;;;;;8.28;49.29;101250.47;5096018;28;20508;-60
2021/04/04 03:08:40;;;;;;;14.38;4.03;;;;;;;8.24;49.81;101255.72;5095677;28;20146;-60
2021/04/04 03:11:08;;;;;;;13.85;3.53;;;;;;;8.26;49.21;101253.50;5095922;28;20052;-60
2021/04/04 03:13:36;;;;;;;13.68;3.58;;;;;;;8.27;49.57;101248.78;5096192;28;20063;-59
2021/04/04 03:16:05;;;;;;;14.90;4.55;;;;;;;8.27;49.14;101248.78;5096122;28;20461;-60
2021/04/04 03:18:34;;;;;;;10.10;3.73;;;;;;;8.28;49.47;101247.69;5096313;28;20052;-60
2021/04/04 03:21:04;;;;;;;14.73;4.00;;;;;;;8.31;49.68;101258.22;5096381;28;20954;-59
2021/04/04 03:23:32;;;;;;;12.68;4.22;;;;;;;8.32;49.92;101251.56;5094847;28;20047;-60
2021/04/04 03:26:00;;;;;;;12.30;3.75;;;;;;;8.33;49.55;101245.72;5095884;28;20389;-60
2021/04/04 03:28:29;;;;;;;19.85;4.88;;;;;;;8.35;49.62;101245.44;5095550;28;20083;-60
2021/04/04 03:30:56;;;;;;;12.93;3.90;;;;;;;8.37;49.32;101250.72;5095643;28;20397;-60
2021/04/04 03:33:27;;;;;;;12.07;4.15;;;;;;;8.39;48.75;101249.31;5095937;28;20404;-59
2021/04/04 03:35:56;;;;;;;17.40;4.45;;;;;;;8.38;49.01;101242.13;5095562;28;20059;-58
2021/04/04 03:38:25;;;;;;;12.55;4.50;;;;;;;8.40;48.76;101248.22;5094683;28;20110;-59
2021/04/04 03:40:54;;;;;;;14.70;4.60;;;;;;;8.38;49.58;101247.69;5095366;28;20382;-60
2021/04/04 03:43:26;;;;;;;20.30;4.57;;;;;;;8.34;48.29;101249.34;5096090;28;20048;-60
2021/04/04 03:45:59;;;;;;;15.38;3.90;;;;;;;8.33;48.94;101251.25;5095196;28;20059;-60
2021/04/04 03:48:29;;;;;;;11.88;4.03;;;;;;;8.32;48.64;101248.78;5095706;28;20484;-60
2021/04/04 03:50:57;;;;;;;14.75;4.30;;;;;;;8.31;48.91;101244.34;5094651;28;20066;-59
2021/04/04 03:53:30;;;;;;;14.18;4.85;;;;;;;8.29;48.82;101247.41;5094526;28;20047;-60
2021/04/04 03:56:05;;;;;;;11.07;3.90;;;;;;;8.27;49.41;101243.22;5095156;28;20473;-60
2021/04/04 03:58:35;;;;;;;14.80;4.20;;;;;;;8.28;49.40;101242.13;5095394;28;20067;-60
2021/04/04 04:01:04;;;;;;;;;;;;;;;8.26;49.30;101241.59;5096035;28;20382;-60
2021/04/04 04:03:34;;;;;;;14.77;3.90;;;;;;;8.23;48.72;101236.56;5095569;28;20376;-60
2021/04/04 04:06:01;;;;;;;13.40;4.05;;;;;;;8.24;49.03;101235.47;5095507;28;20055;-59
2021/04/04 04:08:33;;;;;;;16.30;4.82;;;;;;;8.26;49.32;101230.47;5094475;28;20051;-60
2021/04/04 04:11:00;;;;;;;16.02;4.20;;;;;;;8.22;49.56;101230.19;5094092;28;20484;-60
2021/04/04 04:13:29;;;;;;;12.35;3.95;;;;;;;8.26;50.03;101224.94;5094246;28;20052;-59
2021/04/04 04:15:56;;;;;;;16.58;4.25;;;;;;;8.25;49.03;101226.88;5094682;28;20476;-60
2021/04/04 04:18:27;;;;;;;13.02;3.97;;;;;;;8.26;49.08;101225.75;5094830;28;20056;-60
2021/04/04 04:20:57;;;;;;;14.15;4.05;;;;;;;8.27;48.77;101213.56;5095255;28;20055;-60
2021/04/04 04:23:24;;;;;;;14.77;4.28;;;;;;;8.27;48.92;101209.94;5094288;28;20056;-60
2021/04/04 04:25:55;;;;;;;14.75;3.80;;;;;;;8.30;49.17;101214.94;5094314;28;20059;-60
2021/04/04 04:28:24;;;;;;;17.52;4.80;;;;;;;8.30;48.70;101224.09;5094649;28;20134;-60
2021/04/04 04:30:51;;;;;;;17.40;4.22;;;;;;;8.29;48.58;101213.25;5094475;28;20075;-60
2021/04/04 04:33:21;;;;;;;24.40;5.22;;;;;;;8.29;49.14;101224.34;5094983;28;20055;-59
2021/04/04 04:35:51;;;;;;;12.57;3.90;;;;;;;8.29;48.89;101213.25;5094349;28;20055;-59
2021/04/04 04:38:20;;;;;;;12.60;5.03;;;;;;;8.27;49.13;101205.22;5094774;28;20048;-59
2021/04/04 04:40:47;;;;;;;15.38;4.40;;;;;;;8.26;49.48;101216.59;5094244;28;20066;-59
2021/04/04 04:43:20;;;;;;;11.70;4.22;;;;;;;8.26;49.46;101209.09;5094580;28;20477;-59
2021/04/04 04:45:47;;;;;;;13.50;4.25;;;;;;;8.28;49.12;101211.59;5094089;28;20531;-60
2021/04/04 04:48:16;;;;;;;14.27;3.90;;;;;;;8.28;49.18;101212.44;5094154;28;20059;-59
2021/04/04 04:50:44;;;;;;;14.18;4.15;;;;;;;8.27;48.94;101201.59;5094259;28;20052;-59
2021/04/04 04:53:12;;;;;;;11.88;5.13;;;;;;;8.26;49.24;101209.09;5093606;28;20400;-60
2021/04/04 04:55:41;;;;;;;11.82;3.83;;;;;;;8.28;48.63;101203.28;5093850;28;20059;-57
2021/04/04 04:58:08;;;;;;;15.48;4.88;;;;;;;8.28;48.47;101204.09;5093679;28;20060;-59
2021/04/04 05:00:37;;;;;;;10.45;3.95;;;;;;;8.27;49.28;101204.38;5093973;28;20458;-60
2021/04/04 05:03:06;;;;;;;10.50;4.28;;;;;;;8.29;49.76;101202.16;5094118;28;20048;-59
2021/04/04 05:05:33;;;;;;;16.65;4.45;;;;;;;8.32;48.72;101207.16;5093922;28;20059;-60
2021/04/04 05:08:00;;;;;;;13.98;4.28;;;;;;;8.32;48.45;101201.59;5088730;28;20059;-60
2021/04/04 05:10:29;;;;;;;10.68;3.58;;;;;;;8.33;48.97;101189.38;5073842;28;20064;-60
2021/04/04 05:12:58;;;;;;;11.43;3.97;;;;;;;8.32;49.35;101196.06;5073784;28;20052;-60
2021/04/04 05:15:26;;;;;;;14.43;4.35;;;;;;;8.34;48.54;101194.66;5073653;28;20416;-60
2021/04/04 05:17:54;;;;;;;11.07;3.83;;;;;;;8.37;48.10;101198.81;5073515;28;20053;-60
2021/04/04 05:20:21;;;;;;;16.55;4.55;;;;;;;8.35;48.38;101189.94;5072986;28;20409;-60
2021/04/04 05:22:49;;;;;;;15.60;6.03;;;;;;;8.39;47.78;101201.31;5073357;28;20055;-60
2021/04/04 05:25:16;;;;;;;16.52;6.15;;;;;;;8.42;47.37;101212.72;5073426;28;20044;-59
2021/04/04 05:27:46;;;;;;;14.40;5.43;;;;;;;8.43;48.23;101214.38;5073444;28;20048;-58
2021/04/04 05:30:17;;;;;;;11.68;4.63;;;;;;;8.43;48.51;101208.81;5073482;28;20405;-59
2021/04/04 05:32:45;;;;;;;14.93;4.63;;;;;;;8.41;48.02;101211.03;5073560;28;20060;-59
2021/04/04 05:35:19;;;;;;;13.27;4.93;;;;;;;8.44;47.51;101209.63;5073211;28;20504;-60
2021/04/04 05:37:47;;;;;;;18.15;4.82;;;;;;;8.44;47.87;101209.63;5073128;28;20509;-58
2021/04/04 05:40:23;;;;;;;14.02;4.57;;;;;;;8.45;47.15;101214.91;5073192;28;20051;-60
2021/04/04 05:42:55;;;;;;;13.52;4.72;;;;;;;8.38;47.18;101210.72;5073151;28;20516;-60
2021/04/04 05:45:31;;;;;;;15.30;5.20;;;;;;;8.41;47.45;101210.22;5073427;28;20401;-59
2021/04/04 05:48:10;;;;;;;13.32;4.00;;;;;;;8.43;48.18;101214.38;5067854;28;20056;-60
2021/04/04 05:50:51;;;;;;;15.17;4.80;;;;;;;8.46;47.91;101208.25;5052695;28;20060;-60
2021/04/04 05:53:30;;;;;;;13.30;4.30;;;;;;;8.44;48.08;101210.50;5052786;28;20080;-60
2021/04/04 05:56:05;;;;;;;16.27;5.07;;;;;;;8.47;47.65;101209.09;5053238;28;20056;-60
2021/04/04 05:58:39;;;;;;;16.63;3.97;;;;;;;8.52;47.63;101209.06;5070210;28;20417;-60
2021/04/04 06:01:23;;;;;;;17.65;4.47;;;;;;;8.53;48.44;101207.97;5088718;28;20055;-60
2021/04/04 06:04:15;;;;;;;17.50;4.97;;;;;;;8.54;47.99;101204.06;5092947;28;20511;-60
2021/04/04 06:07:17;;;;;;;17.20;4.70;;;;;;;8.59;47.06;101201.28;5092853;28;20056;-60
2021/04/04 06:10:02;;;;;;;13.82;5.10;;;;;;;8.62;47.12;101202.66;5093032;28;20048;-60
2021/04/04 06:12:41;;;;;;;15.98;4.30;;;;;;;8.63;48.19;101205.16;5092884;28;20056;-60
2021/04/04 06:15:23;;;;;;;18.17;5.20;;;;;;;8.66;46.90;101203.75;5093062;28;20059;-61
2021/04/04 06:17:58;;;;;;;12.45;4.97;;;;;;;8.67;45.46;101206.25;5093334;28;20082;-60
2021/04/04 06:20:40;;;;;;;16.67;4.22;;;;;;;8.69;44.89;101200.38;5092742;28;20055;-60
2021/04/04 06:23:17;;;;;;;10.70;4.63;;;;;;;8.63;44.83;101196.81;5091931;28;20056;-60
2021/04/04 06:25:57;;;;;;;18.25;5.50;;;;;;;8.70;44.75;101202.06;5092459;28;20051;-60
2021/04/04 06:28:39;;;;;;;15.85;4.25;;;;;;;8.73;44.36;101201.47;5093042;28;20385;-60
2021/04/04 06:31:18;;;;;;;12.05;3.78;;;;;;;8.79;44.64;101200.34;5092886;28;20063;-60
2021/04/04 06:33:49;;;;;;;11.60;3.80;;;;;;;8.82;44.38;101199.81;5087076;28;20420;-60
2021/04/04 06:36:28;;;;;;;14.27;4.18;;;;;;;8.86;45.00;101200.91;5090430;28;20060;-60
2021/04/04 06:39:31;;;;;;;12.90;4.17;;;;;;;8.96;47.89;101200.00;5102575;28;20055;-60
2021/04/04 06:42:14;;;;;;;12.48;3.85;;;;;;;9.02;46.44;101204.41;5098571;28;20396;-61
2021/04/04 06:45:11;;;;;;;12.10;3.75;;;;;;;9.19;47.00;101206.81;5116589;28;20043;-60
2021/04/04 06:47:55;;;;;;;12.77;3.60;;;;;;;9.31;46.29;101212.03;5095955;28;20058;-60
2021/04/04 06:50:23;;;;;;;13.07;4.10;;;;;;;9.38;44.69;101214.50;5116907;28;20052;-60
2021/04/04 06:53:06;;;;;;;11.02;4.43;;;;;;;9.50;44.97;101209.41;5095962;28;20052;-61
2021/04/04 06:55:48;;;;;;;15.65;5.00;;;;;;;9.55;43.72;101207.41;5081145;28;20063;-60
2021/04/04 06:58:24;;;;;;;11.40;5.05;;;;;;;9.61;43.49;101204.59;5093996;28;20420;-61
2021/04/04 07:01:02;;;;;;;10.63;4.68;;;;;;;9.63;43.35;101200.41;5096507;28;20059;-60
2021/04/04 07:03:43;;;;;;;12.45;5.43;;;;;;;9.67;42.95;101204.25;5096246;28;20052;-60
2021/04/04 07:06:24;;;;;;;13.63;4.90;;;;;;;9.65;42.76;101200.94;5096623;28;20465;-59
2021/04/04 07:09:03;;;;;;;10.52;4.28;;;;;;;9.70;43.53;101203.69;5096150;28;20067;-60
2021/04/04 07:11:36;;;;;;;8.70;4.18;;;;;;;9.74;43.79;101198.34;5096614;28;20080;-60
2021/04/04 07:14:49;;;;;;;16.58;4.97;;;;;;;9.77;43.19;101205.31;5096281;28;20404;-60
2021/04/04 07:17:28;;;;;;;11.68;3.45;;;;;;;9.78;43.23;101201.41;5077228;28;20052;-61
2021/04/04 07:20:17;;;;;;;10.23;3.57;;;;;;;9.81;43.41;101204.44;5095762;28;20048;-60
2021/04/04 07:23:15;;;;;;;12.35;3.05;;;;;;;9.88;42.99;101204.91;5095969;28;20071;-60
2021/04/04 07:25:48;;;;;;;11.60;3.05;;;;;;;9.93;42.70;101209.59;5075370;28;20052;-60
2021/04/04 07:28:37;;;;;;;9.13;3.92;;;;;;;9.96;42.41;101195.13;5075763;28;20048;-58
2021/04/04 07:31:09;;;;;;;11.05;3.35;;;;;;;9.95;42.88;101204.56;5075812;28;20454;-60
2021/04/04 07:33:42;;;;;;;11.60;3.08;;;;;;;9.96;42.82;101200.69;5076808;28;20059;-60
2021/04/04 07:36:18;;;;;;;9.48;2.45;;;;;;;9.96;42.94;101206.25;5095020;28;20048;-59
2021/04/04 07:38:55;;;;;;;13.27;2.65;;;;;;;9.97;42.77;101196.75;5095790;28;20405;-60
2021/04/04 07:41:36;;;;;;;7.95;2.85;;;;;;;9.98;43.28;101198.44;5094975;28;20048;-59
2021/04/04 07:44:13;;;;;;;8.00;2.35;;;;;;;10.02;42.48;101204.25;5080882;28;20067;-61
2021/04/04 07:46:50;;;;;;;9.38;2.42;;;;;;;10.07;42.89;101205.00;5093233;28;20409;-61
2021/04/04 07:49:34;;;;;;;7.88;2.88;;;;;;;10.14;42.67;101207.44;5092095;28;20413;-61
2021/04/04 07:52:11;;;;;;;9.13;2.70;;;;;;;10.12;43.07;101202.19;5091863;28;20055;-60
2021/04/04 07:54:48;;;;;;;10.55;2.95;;;;;;;10.23;43.27;101200.16;5082394;28;20060;-58
2021/04/04 07:57:26;;;;;;;8.00;2.88;;;;;;;10.27;42.65;101204.00;5082541;28;20056;-59
2021/04/04 07:59:58;;;;;;;8.10;2.67;;;;;;;10.33;43.26;101207.56;5069380;28;20049;-60
2021/04/04 08:02:29;;;;;;;13.68;3.33;;;;;;;10.31;42.88;101202.31;5072414;28;20056;-59
2021/04/04 08:05:03;;;;;;;8.90;3.15;;;;;;;10.38;42.79;101206.72;5068033;28;20067;-60
2021/04/04 08:07:39;;;;;;;11.85;3.75;;;;;;;10.40;41.83;101199.72;5087153;28;20044;-61
2021/04/04 08:10:09;;;;;;;7.75;3.10;;;;;;;10.41;41.93;101209.72;5075627;28;20138;-60
2021/04/04 08:12:47;;;;;;;9.80;3.25;;;;;;;10.44;41.49;101205.53;5075031;28;20386;-60
2021/04/04 08:15:20;;;;;;;7.13;2.75;;;;;;;10.39;42.49;101209.19;5071589;28;20071;-59
2021/04/04 08:17:47;;;;;;;8.07;3.10;;;;;;;10.45;42.86;101204.38;5072227;28;20052;-60
2021/04/04 08:20:21;;;;;;;5.78;2.65;;;;;;;10.50;42.32;101210.75;5071376;28;20051;-59
2021/04/04 08:22:59;;;;;;;7.72;3.30;;;;;;;10.51;42.11;101198.47;5072657;28;20052;-58
2021/04/04 08:25:35;;;;;;;8.40;3.10;;;;;;;10.61;41.91;101207.84;5074597;28;20048;-58
2021/04/04 08:28:11;;;;;;;14.57;3.50;;;;;;;10.64;42.02;101210.03;5072565;28;20543;-59
2021/04/04 08:30:43;;;;;;;8.27;3.53;;;;;;;10.64;41.61;101210.84;5069779;28;20051;-59
2021/04/04 08:33:15;;;;;;;12.13;5.28;;;;;;;10.65;42.42;101203.34;5072483;28;20063;-60
2021/04/04 08:35:45;;;;;;;14.38;4.55;;;;;;;10.72;41.70;101209.38;5073278;28;20063;-60
2021/04/04 08:38:19;;;;;;;9.05;5.43;;;;;;;10.74;41.98;101209.91;5064095;28;20420;-59
2021/04/04 08:40:48;;;;;;;11.00;6.10;;;;;;;10.77;41.90;101209.28;5068239;28;20344;-61
2021/04/04 08:43:19;;;;;;;13.38;6.25;;;;;;;10.80;41.23;101211.50;5054516;28;20057;-60
2021/04/04 08:45:52;;;;;;;15.32;7.10;;;;;;;10.81;41.73;101215.94;5070114;28;20052;-61
2021/04/04 08:48:20;;;;;;;13.57;6.55;;;;;;;10.79;41.74;101212.63;5072234;28;20044;-60
2021/04/04 08:50:52;;;;;;;15.93;6.63;;;;;;;10.72;42.08;101209.38;5070773;28;20045;-59
2021/04/04 08:53:29;;;;;;;11.25;6.32;;;;;;;10.71;42.22;101214.13;5063870;28;20427;-59
2021/04/04 08:55:56;;;;;;;18.60;8.20;;;;;;;10.68;43.10;101213.88;5068852;28;20044;-60
2021/04/04 08:58:31;;;;;;;17.10;7.68;;;;;;;10.70;42.84;101215.22;5085866;28;20052;-56
2021/04/04 09:01:05;;;;;;;21.17;8.68;;;;;;;10.74;43.01;101218.25;5093599;28;20404;-60
2021/04/04 09:03:37;;;;;;;15.07;7.82;;;;;;;10.73;43.66;101214.66;5074735;28;20056;-60
2021/04/04 09:06:06;;;;;;;11.48;6.68;;;;;;;10.78;43.19;101216.53;5088679;28;20063;-59
2021/04/04 09:08:39;;;;;;;14.30;7.55;;;;;;;10.82;43.03;101223.19;5093512;28;20059;-58
2021/04/04 09:11:09;;;;;;;11.82;6.70;;;;;;;10.82;42.93;101217.59;5093332;28;20044;-59
2021/04/04 09:13:38;;;;;;;17.27;7.22;;;;;;;10.80;43.48;101222.66;5093300;28;20040;-60
2021/04/04 09:16:09;;;;;;;14.85;7.97;;;;;;;10.82;43.87;101220.41;5093977;28;20044;-60
2021/04/04 09:18:45;;;;;;;18.48;8.07;;;;;;;10.76;43.52;101219.63;5093491;28;20048;-59
2021/04/04 09:21:13;;;;;;;12.13;7.10;;;;;;;10.75;43.35;101217.97;5092419;28;20473;-59
2021/04/04 09:23:43;;;;;;;13.20;6.75;;;;;;;10.76;43.30;101216.00;5093220;28;20055;-58
2021/04/04 09:26:14;;;;;;;13.25;6.70;;;;;;;10.77;43.67;101209.28;5093047;28;20044;-60
2021/04/04 09:28:42;;;;;;;12.60;7.18;;;;;;;10.67;43.99;101217.81;5093055;28;20054;-60
2021/04/04 09:31:18;;;;;;;20.83;7.00;;;;;;;10.70;44.15;101214.41;5093935;28;20071;-60
2021/04/04 09:33:51;;;;;;;12.70;5.55;;;;;;;10.76;44.25;101213.22;5093788;28;20063;-60
2021/04/04 09:36:19;;;;;;;10.02;5.00;;;;;;;10.80;43.89;101219.84;5093939;28;20362;-63
2021/04/04 09:38:48;;;;;;;7.95;4.32;;;;;;;10.87;44.00;101216.72;5093457;28;20481;-60
2021/04/04 09:41:15;;;;;;;7.73;4.20;;;;;;;10.93;43.27;101213.56;5093627;28;20048;-60
2021/04/04 09:44:00;;;;;;;8.55;3.70;;;;;;;10.94;43.37;101215.22;5093213;28;20497;-60
2021/04/04 09:46:28;;;;;;;10.65;4.32;;;;;;;10.94;43.27;101212.44;5092463;28;20059;-59
2021/04/04 09:48:55;;;;;;;8.45;4.35;;;;;;;10.94;43.84;101204.06;5092855;28;20051;-59
2021/04/04 09:51:22;;;;;;;8.45;4.75;;;;;;;11.02;43.61;101201.75;5093504;28;20465;-62
2021/04/04 09:53:53;;;;;;;7.30;5.15;;;;;;;11.04;43.98;101210.63;5093605;28;20055;-59
2021/04/04 09:56:29;;;;;;;7.47;4.32;;;;;;;11.07;43.49;101207.25;5092909;28;20048;-60
2021/04/04 09:58:56;;;;;;;10.93;5.63;;;;;;;11.02;44.27;101193.38;5093249;28;20493;-60
2021/04/04 10:01:24;;;;;;;11.23;5.32;;;;;;;11.10;43.64;101198.28;5092904;28;20052;-63
2021/04/04 10:03:59;;;;;;;7.55;4.57;;;;;;;11.13;43.63;101189.34;5082799;28;20048;-59
2021/04/04 10:06:26;;;;;;;9.57;5.30;;;;;;;11.13;43.66;101180.97;5072279;28;20060;-59
2021/04/04 10:08:56;;;;;;;10.77;4.97;;;;;;;11.16;43.58;101189.53;5072736;28;20052;-59
2021/04/04 10:11:25;;;;;;;9.90;4.88;;;;;;;11.12;44.14;101180.13;5066850;28;20052;-59
2021/04/04 10:14:05;;;;;;;9.40;5.43;;;;;;;11.08;44.36;101181.84;5066513;28;20130;-60
2021/04/04 10:16:32;;;;;;;10.10;5.45;;;;;;;11.10;44.32;101175.97;5064950;28;20139;-58
2021/04/04 10:19:06;;;;;;;11.68;5.57;;;;;;;11.09;44.09;101172.38;5072806;28;20148;-59
2021/04/04 10:21:38;;;;;;;11.35;5.80;;;;;;;11.15;44.27;101173.94;5072077;28;20063;-60
2021/04/04 10:24:30;;;;;;;14.57;6.82;;;;;;;11.22;44.24;101169.97;5069377;28;20056;-60
2021/04/04 10:27:20;;;;;;;7.70;4.90;;;;;;;11.29;43.42;101165.66;5065505;28;20048;-59
2021/04/04 10:29:49;;;;;;;8.18;5.00;;;;;;;11.32;43.61;101165.06;5072512;28;20492;-60
2021/04/04 10:32:25;;;;;;;10.00;5.13;;;;;;;11.42;43.88;101164.03;5073507;28;20048;-59
2021/04/04 10:34:52;;;;;;;11.35;6.00;;;;;;;11.50;43.27;101168.94;5072203;28;20048;-61
2021/04/04 10:37:25;;;;;;;9.80;6.65;;;;;;;11.60;42.96;101165.16;5072149;28;20059;-60
2021/04/04 10:39:59;;;;;;;10.38;5.80;;;;;;;11.73;41.99;101160.75;5073953;28;20052;-60
2021/04/04 10:42:28;;;;;;;10.85;6.03;;;;;;;11.80;42.08;101150.06;5072499;28;20401;-60
2021/04/04 10:45:12;;;;;;;8.10;5.50;;;;;;;11.96;41.22;101156.19;5072685;28;20500;-58
2021/04/04 10:47:41;;;;;;;11.25;6.03;;;;;;;11.97;41.58;101143.91;5072680;28;20052;-60
2021/04/04 10:50:10;;;;;;;9.73;6.38;;;;;;;11.91;42.03;101147.94;5071935;28;20052;-60
2021/04/04 10:52:38;;;;;;;9.67;5.47;;;;;;;11.92;41.75;101144.00;5072156;28;20052;-60
2021/04/04 10:55:11;;;;;;;10.95;5.57;;;;;;;11.91;41.11;101145.97;5072727;28;20455;-60
2021/04/04 10:57:41;;;;;;;9.07;6.10;;;;;;;12.00;41.42;101134.09;5071844;28;20048;-59
2021/04/04 11:00:10;;;;;;;9.15;5.85;;;;;;;12.01;41.35;101142.16;5071925;28;20402;-60
2021/04/04 11:02:39;;;;;;;12.30;7.63;;;;;;;12.03;41.63;101131.50;5071721;28;20410;-59
2021/04/04 11:05:07;;;;;;;10.02;7.00;;;;;;;12.09;41.83;101140.59;5072007;28;20059;-59
2021/04/04 11:07:35;;;;;;;12.60;6.80;;;;;;;12.09;41.43;101132.22;5072364;28;20059;-59
2021/04/04 11:10:03;;;;;;;14.30;8.55;;;;;;;12.13;40.54;101125.72;5071073;28;20049;-58
2021/04/04 11:12:34;;;;;;;15.57;9.45;;;;;;;12.07;40.91;101129.75;5071334;28;20060;-58
2021/04/04 11:15:03;;;;;;;16.20;10.88;;;;;;;12.11;41.45;101116.81;5072197;28;20048;-59
2021/04/04 11:17:34;;;;;;;15.38;8.80;;;;;;;12.08;40.77;101111.88;5072586;28;20048;-59
2021/04/04 11:20:03;;;;;;;13.80;8.73;;;;;;;12.13;41.18;101108.97;5071719;28;20061;-59
2021/04/04 11:22:31;;;;;;;15.93;9.20;;;;;;;12.04;41.42;101099.66;5071861;28;20048;-58
2021/04/04 11:24:59;;;;;;;13.35;8.07;;;;;;;12.05;41.11;101098.50;5075026;28;20048;-58
2021/04/04 11:27:47;;;;;;;10.65;7.00;;;;;;;12.06;41.48;101097.38;5075391;28;20072;-57
2021/04/04 11:30:16;;;;;;;14.02;8.18;;;;;;;12.06;42.24;101100.16;5075114;28;20056;-58
2021/04/04 11:32:45;;;;;;;12.77;8.45;;;;;;;12.01;42.37;101091.06;5075372;28;20045;-58
2021/04/04 11:35:14;;;;;;;10.45;7.53;;;;;;;12.01;42.42;101100.28;5075712;28;20053;-59
2021/04/04 11:37:44;;;;;;;13.80;8.30;;;;;;;12.06;41.85;101093.78;5075317;28;20056;-59
2021/04/04 11:40:14;;;;;;;16.63;8.73;;;;;;;12.10;42.40;101084.47;5075228;28;20056;-57
2021/04/04 11:42:43;;;;;;;11.88;7.72;;;;;;;12.02;42.44;101087.16;5075058;28;20075;-58
2021/04/04 11:45:12;;;;;;;12.25;7.78;;;;;;;12.02;41.94;101073.19;5074941;28;20052;-59
2021/04/04 11:47:39;;;;;;;15.13;9.00;;;;;;;12.03;41.92;101084.03;5075808;28;20493;-59